Time;durP1;ratioP1;P1;durP2;ratioP2;P2;SDS_P1;SDS_P2;PMS_P1;PMS_P2;Temp;Humidity;BMP_temperature;BMP_pressure;BME280_temperature;BME280_humidity;BME280_pressure;Samples;Min_cycle;Max_cycle;Signal;HPM_P1;HPM_P2
2024/03/20 00:00:42;;;;;;;17.50;10.60;;;;;;;8.38;89.14;99281.64;79509;1298;3012166;-61
2024/03/20 00:03:08;;;;;;;21.20;12.70;;;;;;;8.43;88.31;99280.33;79706;1300;3011843;-63
2024/03/20 00:05:36;;;;;;;21.10;13.30;;;;;;;8.11;88.63;99275.94;78753;1301;3026508;-61
2024/03/20 00:08:04;;;;;;;21.40;13.90;;;;;;;7.80;90.29;99275.48;79753;1298;3013243;-62
2024/03/20 00:10:31;;;;;;;23.30;15.10;;;;;;;7.59;91.13;99272.70;79883;1307;3011244;-62
2024/03/20 00:12:59;;;;;;;22.60;14.30;;;;;;;7.54;91.96;99270.36;78514;1298;3053379;-62
2024/03/20 00:15:25;;;;;;;16.90;10.30;;;;;;;7.49;92.18;99261.86;79415;1298;3020463;-62
2024/03/20 00:17:52;;;;;;;19.50;11.50;;;;;;;8.07;91.01;99261.13;79391;1296;3013125;-63
2024/03/20 00:20:20;;;;;;;22.50;12.20;;;;;;;8.53;88.36;99263.75;78180;1298;3026400;-61
2024/03/20 00:22:46;;;;;;;21.40;11.80;;;;;;;8.62;87.36;99262.75;79537;1295;3012917;-63
2024/03/20 00:25:13;;;;;;;20.80;12.90;;;;;;;8.56;87.55;99260.45;79578;1302;3012850;-63
2024/03/20 00:27:41;;;;;;;23.20;13.40;;;;;;;8.41;87.41;99262.31;78239;1296;3027402;-63
2024/03/20 00:30:09;;;;;;;22.20;13.30;;;;;;;8.20;87.53;99258.02;79355;1295;3018489;-64
2024/03/20 00:32:36;;;;;;;21.80;13.00;;;;;;;8.07;87.83;99263.77;79410;1298;3012961;-63
2024/03/20 00:35:05;;;;;;;15.80;10.00;;;;;;;7.95;87.74;99261.27;78312;1298;3050225;-63
2024/03/20 00:37:32;;;;;;;15.50;9.90;;;;;;;8.24;87.44;99260.61;79564;1296;3012629;-64
2024/03/20 00:39:59;;;;;;;15.40;10.30;;;;;;;8.73;85.93;99253.23;79706;1298;3011680;-63
2024/03/20 00:42:27;;;;;;;18.30;10.50;;;;;;;8.72;85.27;99247.32;78256;1308;3052197;-63
2024/03/20 00:44:53;;;;;;;17.20;10.60;;;;;;;8.62;85.30;99251.71;79445;1301;3013361;-63
2024/03/20 00:47:20;;;;;;;20.00;12.60;;;;;;;8.45;85.85;99254.74;79434;1298;3011716;-63
2024/03/20 00:49:48;;;;;;;23.20;12.80;;;;;;;8.19;86.36;99255.27;78060;1301;3048066;-63
2024/03/20 00:52:15;;;;;;;20.20;12.10;;;;;;;8.04;87.17;99252.27;79550;1308;3013887;-62
2024/03/20 00:54:43;;;;;;;22.10;14.00;;;;;;;7.94;87.35;99253.63;79548;1297;3011453;-64
2024/03/20 00:57:11;;;;;;;15.70;9.50;;;;;;;7.87;87.94;99250.66;78322;1295;3052516;-64
2024/03/20 00:59:37;;;;;;;18.80;11.10;;;;;;;8.37;86.99;99250.27;79463;1298;3013479;-63
2024/03/20 01:02:06;;;;;;;16.10;9.90;;;;;;;8.98;85.44;99247.06;79359;1298;3011765;-64
2024/03/20 01:04:34;;;;;;;13.60;9.30;;;;;;;9.05;84.28;99249.98;78316;1294;3049018;-62
2024/03/20 01:07:01;;;;;;;17.10;9.60;;;;;;;8.95;83.81;99250.03;79413;1298;3013556;-61
2024/03/20 01:09:28;;;;;;;20.80;11.00;;;;;;;8.69;83.56;99245.27;79575;1299;3011954;-66
2024/03/20 01:11:56;;;;;;;23.20;10.90;;;;;;;8.47;83.92;99247.98;78246;1299;3026643;-61
2024/03/20 01:14:23;;;;;;;18.30;10.60;;;;;;;8.36;84.22;99254.54;79364;1298;3013351;-60
2024/03/20 01:16:50;;;;;;;18.80;10.70;;;;;;;8.24;84.21;99252.21;79495;1298;3011644;-61
2024/03/20 01:19:18;;;;;;;17.00;10.70;;;;;;;8.12;84.22;99251.13;78264;1299;3025972;-62
2024/03/20 01:21:45;;;;;;;14.80;7.90;;;;;;;8.05;84.22;99251.30;79455;1301;3018540;-58
2024/03/20 01:24:12;;;;;;;17.00;9.80;;;;;;;8.51;82.87;99255.99;79580;1295;3013199;-59
2024/03/20 01:26:40;;;;;;;17.70;9.60;;;;;;;8.98;80.62;99250.57;78285;1299;3053641;-63
2024/03/20 01:29:06;;;;;;;17.80;9.30;;;;;;;9.05;79.79;99248.98;79406;1298;3019524;-64
2024/03/20 01:31:33;;;;;;;20.30;10.60;;;;;;;8.96;80.12;99249.14;79424;1298;3013275;-63
2024/03/20 01:34:01;;;;;;;26.40;10.80;;;;;;;8.64;79.80;99248.83;78197;1295;3025304;-63
2024/03/20 01:36:28;;;;;;;22.80;11.40;;;;;;;8.37;80.55;99254.12;79693;1298;3013299;-62
2024/03/20 01:38:55;;;;;;;23.80;11.30;;;;;;;8.22;81.40;99256.17;79463;1296;3011505;-63
2024/03/20 01:41:23;;;;;;;23.90;11.20;;;;;;;8.03;81.80;99259.95;78222;1296;3053341;-64
2024/03/20 01:43:54;;;;;;;20.10;11.70;;;;;;;7.84;82.20;99262.34;79348;1298;3013519;-61
2024/03/20 01:46:32;;;;;;;18.90;11.50;;;;;;;7.69;82.99;99259.13;78367;1296;3055916;-63
2024/03/20 01:49:01;;;;;;;22.80;12.20;;;;;;;7.54;83.08;99256.77;78298;1297;3050006;-64
2024/03/20 01:51:28;;;;;;;15.40;9.20;;;;;;;7.45;83.58;99256.86;79598;1298;3013266;-59
2024/03/20 01:53:56;;;;;;;25.20;11.50;;;;;;;7.98;82.52;99255.16;79478;1298;3011415;-62
2024/03/20 01:56:24;;;;;;;21.30;11.20;;;;;;;8.59;80.42;99259.92;78297;1299;3052857;-61
2024/03/20 01:58:52;;;;;;;21.50;11.00;;;;;;;8.69;79.18;99253.10;79370;1298;3014264;-63
2024/03/20 02:01:19;;;;;;;23.70;12.30;;;;;;;8.50;78.79;99256.75;79447;1296;3011783;-62
2024/03/20 02:03:47;;;;;;;19.80;12.20;;;;;;;8.27;79.21;99256.05;78183;1298;3049961;-62
2024/03/20 02:06:23;;;;;;;19.50;11.40;;;;;;;8.10;79.39;99251.05;79463;1298;3013347;-61
2024/03/20 02:08:51;;;;;;;25.80;12.10;;;;;;;8.03;79.73;99250.54;78203;1298;3052248;-63
2024/03/20 02:11:22;;;;;;;28.20;13.20;;;;;;;7.81;79.56;99248.36;79505;1298;3013302;-62
2024/03/20 02:13:51;;;;;;;24.60;12.20;;;;;;;7.59;79.99;99248.30;78304;1294;3052106;-63
2024/03/20 02:16:18;;;;;;;27.80;12.70;;;;;;;7.36;80.90;99251.91;79429;1298;3013414;-62
2024/03/20 02:18:45;;;;;;;26.20;12.50;;;;;;;7.20;81.63;99253.75;79504;1296;3011792;-62
2024/03/20 02:21:14;;;;;;;19.10;11.00;;;;;;;7.10;82.44;99259.51;78228;1298;3050819;-63
2024/03/20 02:23:40;;;;;;;21.70;8.80;;;;;;;7.01;82.62;99258.88;79480;1298;3013525;-62
2024/03/20 02:26:08;;;;;;;16.90;9.40;;;;;;;7.50;81.70;99255.04;79524;1298;3011653;-63
2024/03/20 02:28:40;;;;;;;20.30;10.00;;;;;;;7.99;79.38;99257.17;78256;1298;3052424;-65
2024/03/20 02:31:11;;;;;;;21.50;10.20;;;;;;;8.09;78.49;99255.14;79360;1295;3011928;-62
2024/03/20 02:33:39;;;;;;;24.20;10.90;;;;;;;7.98;78.43;99253.96;78270;1298;3049184;-62
2024/03/20 02:36:06;;;;;;;19.30;11.40;;;;;;;7.81;78.92;99252.55;79748;1295;3012947;-63
2024/03/20 02:38:41;;;;;;;20.20;11.10;;;;;;;7.67;79.19;99253.33;79515;1296;3013246;-65
2024/03/20 02:41:09;;;;;;;20.40;11.60;;;;;;;7.51;79.77;99254.45;78278;1298;3052345;-61
2024/03/20 02:43:35;;;;;;;22.50;11.60;;;;;;;7.35;79.88;99255.27;79474;1298;3019187;-61
2024/03/20 02:46:03;;;;;;;28.10;11.80;;;;;;;7.15;80.49;99252.98;79498;1295;3013644;-62
2024/03/20 02:48:34;;;;;;;26.30;12.80;;;;;;;6.97;81.46;99256.50;78235;1298;3049327;-62
2024/03/20 02:51:01;;;;;;;29.10;12.50;;;;;;;6.87;81.96;99257.31;79686;1296;3011963;-62
2024/03/20 02:53:30;;;;;;;24.70;12.40;;;;;;;6.78;82.30;99258.80;78358;1298;3024946;-61
2024/03/20 02:55:56;;;;;;;23.80;9.00;;;;;;;6.68;82.80;99255.44;79543;1295;3012869;-63
2024/03/20 02:58:23;;;;;;;22.40;10.10;;;;;;;7.08;81.65;99255.22;79380;1294;3013179;-63
2024/03/20 03:00:51;;;;;;;18.80;9.70;;;;;;;7.67;79.43;99254.86;78287;1298;3028770;-63
2024/03/20 03:03:18;;;;;;;26.60;10.50;;;;;;;7.74;78.36;99256.77;79534;1298;3014712;-61
2024/03/20 03:05:44;;;;;;;19.20;9.90;;;;;;;7.62;78.53;99256.52;79423;1295;3011494;-64
2024/03/20 03:08:12;;;;;;;20.20;9.70;;;;;;;7.56;78.85;99258.06;78280;1298;3048910;-60
2024/03/20 03:10:39;;;;;;;21.70;11.00;;;;;;;7.40;78.66;99260.11;79648;1298;3020436;-63
2024/03/20 03:13:05;;;;;;;25.00;10.30;;;;;;;7.21;79.18;99264.70;79501;1298;3011616;-60
2024/03/20 03:15:33;;;;;;;26.60;10.60;;;;;;;7.06;79.70;99267.66;78228;1298;3029420;-62
2024/03/20 03:18:00;;;;;;;23.30;10.80;;;;;;;6.92;80.12;99264.90;79543;1297;3013436;-61
2024/03/20 03:20:26;;;;;;;26.50;11.40;;;;;;;6.79;80.58;99267.08;79436;1298;3013168;-60
2024/03/20 03:22:54;;;;;;;24.10;11.20;;;;;;;6.75;80.91;99267.81;78290;1297;3029690;-62
2024/03/20 03:25:21;;;;;;;23.60;10.90;;;;;;;6.69;81.08;99266.48;79423;1298;3020535;-60
2024/03/20 03:27:48;;;;;;;24.10;11.10;;;;;;;6.62;81.02;99274.66;79475;1298;3011194;-60
2024/03/20 03:30:16;;;;;;;22.10;10.20;;;;;;;6.52;80.81;99273.39;78267;1298;3025284;-63
2024/03/20 03:32:42;;;;;;;19.70;8.80;;;;;;;6.37;81.21;99273.08;79465;1295;3013339;-62
2024/03/20 03:35:09;;;;;;;19.30;9.70;;;;;;;6.82;80.18;99272.31;79489;1298;3011462;-63
2024/03/20 03:37:38;;;;;;;20.40;9.80;;;;;;;7.39;77.97;99270.05;78317;1295;3026291;-63
2024/03/20 03:40:09;;;;;;;20.70;8.60;;;;;;;7.52;76.64;99272.73;79329;1298;3014532;-64
2024/03/20 03:42:38;;;;;;;19.60;9.20;;;;;;;7.51;76.53;99275.40;78189;1298;3068692;-60
2024/03/20 03:45:06;;;;;;;19.00;10.00;;;;;;;7.36;76.76;99277.71;79682;1294;3013178;-65
2024/03/20 03:47:33;;;;;;;20.30;10.80;;;;;;;7.14;77.57;99278.96;79442;1295;3012131;-63
2024/03/20 03:50:00;;;;;;;24.30;10.00;;;;;;;6.95;78.23;99276.95;78513;1295;3053887;-63
2024/03/20 03:52:27;;;;;;;21.60;10.70;;;;;;;6.80;78.78;99284.97;79361;1298;3013490;-62
2024/03/20 03:54:54;;;;;;;18.00;10.10;;;;;;;6.72;79.31;99287.27;79409;1298;3013465;-62
2024/03/20 03:57:21;;;;;;;22.70;10.10;;;;;;;6.63;79.35;99293.08;78241;1298;3029479;-61
2024/03/20 03:59:48;;;;;;;19.80;10.40;;;;;;;6.52;79.64;99297.59;79454;1296;3018782;-61
2024/03/20 04:02:16;;;;;;;20.90;10.10;;;;;;;6.42;79.96;99296.49;79408;1298;3011822;-62
2024/03/20 04:04:44;;;;;;;19.20;9.50;;;;;;;6.32;80.42;99296.23;78150;1298;3052855;-62
2024/03/20 04:07:10;;;;;;;26.00;11.00;;;;;;;6.31;80.43;99298.91;79339;1298;3020818;-63
2024/03/20 04:09:37;;;;;;;23.50;9.90;;;;;;;6.19;80.80;99299.29;79968;1295;3011508;-64
2024/03/20 04:12:05;;;;;;;13.00;7.00;;;;;;;6.20;80.86;99298.55;78727;1295;3026730;-63
2024/03/20 04:14:32;;;;;;;17.40;8.00;;;;;;;6.73;79.96;99301.30;79723;1295;3013205;-64
2024/03/20 04:16:59;;;;;;;16.90;8.40;;;;;;;7.28;77.48;99298.98;79463;1296;3013084;-62
2024/03/20 04:19:27;;;;;;;20.30;8.90;;;;;;;7.39;76.67;99302.50;78202;1298;3025914;-62
2024/03/20 04:21:57;;;;;;;22.40;7.60;;;;;;;7.21;76.51;99300.42;79483;1298;3013920;-63
2024/03/20 04:24:26;;;;;;;18.00;8.10;;;;;;;7.03;76.86;99307.56;78708;1298;3053504;-65
2024/03/20 04:26:52;;;;;;;21.60;8.60;;;;;;;6.72;77.85;99316.86;80292;1294;3014345;-64
2024/03/20 04:29:20;;;;;;;19.50;8.60;;;;;;;6.61;78.29;99317.02;79564;1296;3011577;-65
2024/03/20 04:31:49;;;;;;;29.90;8.70;;;;;;;6.56;78.30;99317.23;78596;1297;3048939;-60
2024/03/20 04:34:16;;;;;;;20.20;8.90;;;;;;;6.42;78.51;99319.62;79760;1295;3012813;-62
2024/03/20 04:36:43;;;;;;;28.00;9.30;;;;;;;6.33;78.74;99324.02;79529;1298;3011801;-63
2024/03/20 04:39:11;;;;;;;21.00;9.40;;;;;;;6.18;79.41;99324.89;78257;1298;3051362;-63
2024/03/20 04:41:38;;;;;;;22.40;9.00;;;;;;;6.14;79.93;99325.25;79445;1298;3018437;-62
2024/03/20 04:44:05;;;;;;;22.50;9.10;;;;;;;6.15;79.81;99328.49;79544;1294;3011748;-63
2024/03/20 04:46:33;;;;;;;20.20;8.50;;;;;;;6.13;79.73;99329.80;78200;1298;3049902;-63
2024/03/20 04:48:59;;;;;;;16.40;8.00;;;;;;;6.06;80.08;99332.77;79468;1294;3013770;-64
2024/03/20 04:51:26;;;;;;;25.50;9.20;;;;;;;6.03;80.38;99333.20;79437;1298;3012889;-63
2024/03/20 04:53:54;;;;;;;18.40;7.50;;;;;;;6.03;80.54;99333.19;78206;1298;3025747;-63
2024/03/20 04:56:21;;;;;;;23.70;7.40;;;;;;;6.61;79.30;99340.15;79695;1298;3012983;-64
2024/03/20 04:58:47;;;;;;;20.20;7.40;;;;;;;7.18;76.63;99336.08;79477;1298;3011894;-64
2024/03/20 05:01:15;;;;;;;21.20;7.50;;;;;;;7.36;75.94;99336.61;78334;1295;3026258;-63
2024/03/20 05:03:42;;;;;;;24.20;8.50;;;;;;;7.36;75.32;99337.31;79363;1295;3013291;-63
2024/03/20 05:06:09;;;;;;;18.60;8.10;;;;;;;7.12;75.58;99339.51;79354;1298;3011907;-62
2024/03/20 05:08:37;;;;;;;26.60;8.30;;;;;;;7.04;76.44;99339.73;78482;1298;3025944;-61
2024/03/20 05:11:03;;;;;;;23.90;8.10;;;;;;;6.80;77.01;99343.96;79511;1295;3013058;-62
2024/03/20 05:13:30;;;;;;;22.20;8.30;;;;;;;6.79;77.40;99342.45;79450;1298;3011914;-63
2024/03/20 05:15:59;;;;;;;25.00;8.00;;;;;;;6.73;77.65;99342.55;78443;1295;3026677;-62
2024/03/20 05:18:25;;;;;;;20.70;8.20;;;;;;;6.67;77.85;99347.20;79423;1298;3011735;-63
2024/03/20 05:20:52;;;;;;;32.90;9.20;;;;;;;6.66;78.29;99344.80;79396;1296;3013134;-63
2024/03/20 05:23:20;;;;;;;21.20;9.70;;;;;;;6.64;78.13;99345.60;78348;1298;3052757;-62
2024/03/20 05:25:57;;;;;;;26.50;9.10;;;;;;;6.62;78.38;99346.21;79555;1298;3018605;-63
2024/03/20 05:28:25;;;;;;;18.20;8.30;;;;;;;6.52;78.48;99351.02;78398;1297;3057337;-63
2024/03/20 05:30:52;;;;;;;30.20;8.30;;;;;;;6.54;78.45;99350.73;79642;1295;3012988;-64
2024/03/20 05:33:18;;;;;;;24.40;9.20;;;;;;;6.55;78.45;99355.91;79410;1295;3014310;-63
2024/03/20 05:35:46;;;;;;;22.20;9.40;;;;;;;6.55;78.54;99353.15;78204;1298;3025771;-61
2024/03/20 05:38:14;;;;;;;16.70;8.00;;;;;;;6.54;78.90;99354.23;79464;1298;3020498;-63
2024/03/20 05:40:41;;;;;;;18.50;7.90;;;;;;;6.55;78.48;99358.88;79706;1295;3012687;-63
2024/03/20 05:43:09;;;;;;;27.70;8.20;;;;;;;6.58;78.17;99357.00;78408;1298;3056741;-65
2024/03/20 05:45:36;;;;;;;20.70;8.10;;;;;;;6.49;78.61;99358.98;79645;1295;3018744;-64
2024/03/20 05:48:03;;;;;;;19.20;9.20;;;;;;;6.48;78.55;99360.74;79498;1298;3013547;-64
2024/03/20 05:50:32;;;;;;;22.70;8.00;;;;;;;6.52;78.61;99365.45;78601;1295;3052215;-62
2024/03/20 05:52:59;;;;;;;20.90;7.40;;;;;;;6.53;78.15;99373.95;79559;1298;3013669;-65
2024/03/20 05:55:25;;;;;;;20.20;8.70;;;;;;;6.52;77.74;99376.61;79499;1296;3013156;-64
2024/03/20 05:57:53;;;;;;;19.90;8.80;;;;;;;6.57;78.01;99377.96;78280;1294;3056820;-63
2024/03/20 06:00:24;;;;;;;17.20;8.20;;;;;;;6.61;78.04;99380.39;79673;1298;3013605;-64
2024/03/20 06:02:52;;;;;;;14.60;5.60;;;;;;;6.62;78.19;99386.78;78509;1294;3050016;-63
2024/03/20 06:05:19;;;;;;;14.80;5.90;;;;;;;7.10;76.94;99386.95;79622;1298;3013109;-64
2024/03/20 06:07:46;;;;;;;20.60;6.10;;;;;;;7.85;74.49;99388.02;79565;1298;3012924;-63
2024/03/20 06:10:14;;;;;;;23.50;7.50;;;;;;;8.07;73.23;99384.80;78445;1295;3026993;-62
2024/03/20 06:12:40;;;;;;;16.00;7.20;;;;;;;7.94;72.82;99387.92;79401;1294;3013420;-63
2024/03/20 06:15:08;;;;;;;18.00;6.40;;;;;;;7.85;72.55;99391.02;79527;1294;3013279;-62
2024/03/20 06:17:38;;;;;;;21.20;7.80;;;;;;;7.82;73.00;99390.97;78274;1298;3025469;-62
2024/03/20 06:20:06;;;;;;;14.20;6.80;;;;;;;7.72;73.23;99393.92;79453;1298;3013733;-63
2024/03/20 06:22:36;;;;;;;17.20;7.20;;;;;;;7.57;73.79;99393.98;79008;1294;3013397;-65
2024/03/20 06:25:06;;;;;;;19.50;7.20;;;;;;;7.50;73.74;99394.83;79585;1295;3015533;-63
2024/03/20 06:27:35;;;;;;;22.10;7.20;;;;;;;7.39;74.32;99393.92;78158;1298;3057427;-63
2024/03/20 06:30:04;;;;;;;16.50;7.70;;;;;;;7.33;74.85;99396.35;79563;1295;3021251;-62
2024/03/20 06:32:33;;;;;;;21.80;8.00;;;;;;;7.30;74.94;99403.63;78851;1298;3013572;-62
2024/03/20 06:35:00;;;;;;;20.40;7.10;;;;;;;7.27;75.37;99402.18;79553;1298;3012837;-62
2024/03/20 06:37:28;;;;;;;26.10;7.80;;;;;;;7.17;75.72;99405.11;79398;1298;3011716;-64
2024/03/20 06:39:56;;;;;;;18.40;7.90;;;;;;;7.20;75.82;99412.98;78284;1294;3026027;-62
2024/03/20 06:42:22;;;;;;;25.10;8.30;;;;;;;7.20;75.94;99410.91;79479;1297;3018499;-63
2024/03/20 06:44:49;;;;;;;23.90;8.10;;;;;;;7.14;76.31;99410.14;79558;1298;3011897;-65
2024/03/20 06:47:18;;;;;;;21.70;7.80;;;;;;;7.19;76.26;99415.11;78366;1298;3027738;-63
2024/03/20 06:49:44;;;;;;;22.50;7.30;;;;;;;7.19;76.14;99415.98;80018;1300;3013314;-63
2024/03/20 06:52:16;;;;;;;22.90;8.00;;;;;;;7.31;75.48;99417.85;79581;1298;3011656;-62
2024/03/20 06:54:46;;;;;;;19.70;8.00;;;;;;;7.27;75.37;99416.48;78469;1298;3067938;-63
2024/03/20 06:57:13;;;;;;;18.20;7.60;;;;;;;7.27;75.32;99420.85;80144;1295;3013064;-64
2024/03/20 06:59:47;;;;;;;18.00;7.70;;;;;;;7.30;75.35;99426.83;79401;1295;3011713;-64
2024/03/20 07:02:15;;;;;;;23.00;7.90;;;;;;;7.30;75.75;99426.80;79725;1294;3011481;-62
2024/03/20 07:04:43;;;;;;;19.40;7.90;;;;;;;7.32;75.96;99425.15;78298;1298;3053621;-64
2024/03/20 07:07:11;;;;;;;20.30;8.60;;;;;;;7.50;75.27;99421.85;79707;1298;3015324;-63
2024/03/20 07:09:38;;;;;;;21.50;8.90;;;;;;;7.48;74.81;99424.36;79667;1295;3012680;-65
2024/03/20 07:12:06;;;;;;;24.00;9.40;;;;;;;7.57;74.74;99417.99;78275;1298;3068530;-64
2024/03/20 07:14:34;;;;;;;31.20;8.60;;;;;;;7.61;74.53;99417.30;79657;1295;3013659;-63
2024/03/20 07:17:01;;;;;;;21.80;8.30;;;;;;;7.73;74.73;99415.86;79527;1295;3011779;-63
2024/03/20 07:19:29;;;;;;;19.20;8.00;;;;;;;7.90;74.57;99416.56;78518;1296;3053320;-63
2024/03/20 07:21:55;;;;;;;18.20;7.80;;;;;;;8.01;74.18;99418.62;79447;1298;3012877;-63
2024/03/20 07:24:22;;;;;;;24.20;8.10;;;;;;;7.96;73.49;99419.23;79532;1298;3011743;-63
2024/03/20 07:26:50;;;;;;;25.30;8.10;;;;;;;7.99;73.42;99418.02;78398;1297;3027560;-63
2024/03/20 07:29:16;;;;;;;30.50;7.60;;;;;;;8.00;73.82;99420.08;79608;1298;3013549;-64
2024/03/20 07:31:43;;;;;;;19.20;7.70;;;;;;;8.08;74.05;99418.30;79539;1295;3011403;-64
2024/03/20 07:34:11;;;;;;;20.50;8.20;;;;;;;8.14;73.24;99416.58;78622;1295;3028649;-62
2024/03/20 07:36:37;;;;;;;21.50;7.90;;;;;;;8.17;73.24;99415.71;79493;1298;3013553;-63
2024/03/20 07:39:06;;;;;;;24.00;8.60;;;;;;;8.21;73.22;99417.26;79783;1298;3011452;-64
2024/03/20 07:41:35;;;;;;;18.10;8.50;;;;;;;8.13;73.27;99415.23;78523;1294;3068121;-64
2024/03/20 07:44:01;;;;;;;24.30;7.60;;;;;;;8.19;73.71;99418.41;79622;1298;3013665;-63
2024/03/20 07:46:28;;;;;;;24.30;8.50;;;;;;;8.34;73.64;99415.73;79363;1297;3011554;-63
2024/03/20 07:48:56;;;;;;;22.50;8.60;;;;;;;8.44;73.55;99418.33;78281;1295;3028442;-64
2024/03/20 07:51:22;;;;;;;21.80;7.90;;;;;;;8.49;73.52;99417.77;79697;1298;3013049;-63
2024/03/20 07:53:49;;;;;;;21.00;7.80;;;;;;;8.52;73.12;99416.04;79576;1298;3011583;-64
2024/03/20 07:56:17;;;;;;;20.70;8.30;;;;;;;8.61;73.10;99418.34;78227;1295;3025341;-63
2024/03/20 07:58:43;;;;;;;21.40;8.50;;;;;;;8.64;72.87;99422.02;79802;1298;3013809;-65
2024/03/20 08:01:11;;;;;;;22.50;9.30;;;;;;;8.74;72.65;99424.65;79984;1294;3011630;-64
2024/03/20 08:03:41;;;;;;;19.90;8.90;;;;;;;8.80;72.94;99424.13;79186;1295;3053137;-62
2024/03/20 08:06:08;;;;;;;21.70;9.30;;;;;;;8.76;72.75;99421.95;79726;1296;3013427;-64
2024/03/20 08:08:35;;;;;;;24.90;8.40;;;;;;;8.70;72.90;99422.21;79680;1297;3011694;-63
2024/03/20 08:11:03;;;;;;;19.90;8.40;;;;;;;8.77;72.84;99421.88;78410;1297;3067826;-64
2024/03/20 08:13:30;;;;;;;21.20;8.30;;;;;;;8.81;72.61;99419.19;79852;1298;3013361;-64
2024/03/20 08:15:57;;;;;;;24.10;9.20;;;;;;;8.86;72.97;99418.77;79834;1295;3013479;-63
2024/03/20 08:18:30;;;;;;;22.40;9.70;;;;;;;8.83;73.90;99420.30;78368;1298;3026361;-64
2024/03/20 08:20:56;;;;;;;22.60;10.10;;;;;;;8.88;73.42;99420.21;79510;1295;3011767;-63
2024/03/20 08:23:25;;;;;;;26.80;9.80;;;;;;;8.98;72.79;99416.89;78936;1297;3053135;-63
2024/03/20 08:25:54;;;;;;;25.70;9.90;;;;;;;9.13;72.37;99417.67;79615;1296;3012857;-64
2024/03/20 08:28:23;;;;;;;18.90;9.40;;;;;;;9.27;72.31;99419.46;79112;1295;3011885;-63
2024/03/20 08:30:50;;;;;;;22.20;9.80;;;;;;;9.29;72.20;99417.63;80337;1296;3013125;-63
2024/03/20 08:33:17;;;;;;;23.50;10.10;;;;;;;9.34;72.13;99421.04;79388;1295;3011706;-64
2024/03/20 08:35:54;;;;;;;17.80;10.30;;;;;;;9.46;71.31;99417.02;79309;1298;3026469;-64
2024/03/20 08:38:23;;;;;;;26.80;10.70;;;;;;;9.58;71.19;99414.75;79143;1294;3052185;-65
2024/03/20 08:40:51;;;;;;;21.20;9.70;;;;;;;9.56;71.30;99421.71;81250;1295;3011396;-64
2024/03/20 08:43:18;;;;;;;20.40;9.60;;;;;;;9.64;71.57;99419.87;80091;1294;3012012;-66
2024/03/20 08:45:46;;;;;;;24.40;11.50;;;;;;;9.67;71.79;99425.25;78244;1298;3051718;-64
2024/03/20 08:48:13;;;;;;;20.60;9.70;;;;;;;9.70;71.13;99422.32;79503;1298;3013361;-64
2024/03/20 08:50:40;;;;;;;27.80;10.60;;;;;;;9.74;70.99;99420.86;79663;1294;3012065;-67
2024/03/20 08:53:08;;;;;;;23.80;10.90;;;;;;;9.66;71.28;99423.21;78426;1294;3028165;-62
2024/03/20 08:55:35;;;;;;;20.60;9.80;;;;;;;9.65;71.39;99427.15;79503;1295;3013525;-62
2024/03/20 08:58:02;;;;;;;19.90;10.10;;;;;;;9.64;71.26;99426.84;80097;1294;3011396;-62
2024/03/20 09:00:31;;;;;;;21.10;10.80;;;;;;;9.62;70.90;99426.29;78210;1295;3028093;-62
2024/03/20 09:02:57;;;;;;;24.60;10.70;;;;;;;9.59;71.47;99430.62;79202;1295;3013729;-62
2024/03/20 09:05:24;;;;;;;22.80;12.20;;;;;;;9.60;71.45;99432.12;79507;1295;3011562;-61
2024/03/20 09:07:52;;;;;;;24.70;11.10;;;;;;;9.72;71.13;99431.11;78205;1298;3048909;-65
2024/03/20 09:10:19;;;;;;;23.40;11.90;;;;;;;9.77;70.70;99435.55;79527;1298;3013617;-65
2024/03/20 09:12:46;;;;;;;30.70;12.20;;;;;;;9.80;70.95;99435.04;79930;1298;3011583;-64
2024/03/20 09:15:14;;;;;;;31.10;13.10;;;;;;;9.82;70.80;99439.96;80828;1294;3027083;-66
2024/03/20 09:17:41;;;;;;;25.50;13.00;;;;;;;9.80;71.01;99448.86;82101;1294;3012709;-64
2024/03/20 09:20:19;;;;;;;35.50;13.30;;;;;;;9.80;70.39;99452.52;82045;1294;3011320;-63
2024/03/20 09:22:47;;;;;;;33.20;14.00;;;;;;;9.76;71.00;99448.36;80824;1294;3048954;-64
2024/03/20 09:25:14;;;;;;;37.70;13.50;;;;;;;9.72;70.69;99450.35;82102;1294;3012370;-64
2024/03/20 09:27:41;;;;;;;29.70;14.50;;;;;;;9.76;70.83;99450.63;82064;1298;3011295;-64
2024/03/20 09:30:09;;;;;;;39.80;19.00;;;;;;;9.76;71.10;99450.79;80830;1294;3024530;-63
2024/03/20 09:32:36;;;;;;;41.90;20.70;;;;;;;9.78;70.86;99449.64;82091;1294;3013131;-70
2024/03/20 09:35:03;;;;;;;38.60;21.20;;;;;;;9.87;70.36;99446.33;82107;1294;3011264;-72
2024/03/20 09:37:31;;;;;;;39.40;20.40;;;;;;;9.89;70.41;99441.66;80812;1294;3048639;-74
2024/03/20 09:39:58;;;;;;;40.90;17.30;;;;;;;9.75;70.70;99447.90;82078;1297;3012866;-66
2024/03/20 09:42:25;;;;;;;28.70;14.40;;;;;;;9.68;70.69;99449.17;82072;1294;3011302;-64
2024/03/20 09:44:53;;;;;;;32.10;14.70;;;;;;;9.71;70.80;99453.75;80843;1294;3052190;-66
2024/03/20 09:47:20;;;;;;;28.60;14.30;;;;;;;9.73;70.82;99452.55;81966;1294;3012467;-67
2024/03/20 09:49:47;;;;;;;31.30;14.40;;;;;;;9.81;71.05;99453.54;82088;1294;3011277;-67
2024/03/20 09:52:16;;;;;;;30.00;14.40;;;;;;;9.86;70.53;99455.86;80796;1294;3026140;-64
2024/03/20 09:54:42;;;;;;;33.30;16.50;;;;;;;9.97;70.15;99458.19;82104;1294;3013265;-69
2024/03/20 09:57:13;;;;;;;38.50;17.90;;;;;;;10.11;69.60;99457.89;81953;1294;3011446;-68
2024/03/20 09:59:42;;;;;;;54.00;20.60;;;;;;;10.08;69.86;99459.66;80693;1295;3051603;-63
2024/03/20 10:02:09;;;;;;;51.20;21.50;;;;;;;10.04;69.68;99458.30;81983;1294;3011510;-67
2024/03/20 10:04:36;;;;;;;54.10;25.40;;;;;;;10.06;69.51;99455.20;82063;1295;3011360;-64
2024/03/20 10:07:10;;;;;;;48.40;20.90;;;;;;;10.03;69.57;99459.25;80820;1295;3049933;-67
2024/03/20 10:09:36;;;;;;;39.30;17.60;;;;;;;10.06;69.34;99457.47;82084;1294;3011432;-70
2024/03/20 10:12:05;;;;;;;27.50;15.00;;;;;;;10.18;68.92;99455.58;80849;1295;3052509;-68
2024/03/20 10:14:34;;;;;;;34.50;14.80;;;;;;;10.33;68.59;99454.17;82017;1297;3011289;-65
2024/03/20 10:17:17;;;;;;;30.00;14.30;;;;;;;10.45;68.03;99449.42;81376;1295;3011679;-68
2024/03/20 10:19:45;;;;;;;41.30;18.60;;;;;;;10.53;67.66;99446.36;80810;1294;3056393;-65
2024/03/20 10:22:11;;;;;;;32.60;18.50;;;;;;;10.42;68.07;99448.05;82060;1294;3012527;-70
2024/03/20 10:24:38;;;;;;;37.20;16.30;;;;;;;10.46;68.06;99444.30;82096;1295;3011450;-68
2024/03/20 10:27:06;;;;;;;37.20;15.90;;;;;;;10.67;67.60;99443.72;80813;1294;3026291;-63
2024/03/20 10:29:35;;;;;;;32.70;15.70;;;;;;;10.78;67.21;99446.57;82089;1295;3013240;-68
2024/03/20 10:32:06;;;;;;;43.80;20.30;;;;;;;10.85;66.81;99445.06;81555;1295;3011544;-70
2024/03/20 10:34:33;;;;;;;54.90;20.80;;;;;;;10.88;67.03;99445.27;81900;1294;3012849;-70
2024/03/20 10:36:59;;;;;;;48.90;22.20;;;;;;;10.95;66.46;99446.20;82096;1294;3011471;-65
2024/03/20 10:39:27;;;;;;;54.40;20.70;;;;;;;10.90;67.06;99445.64;80844;1294;3053075;-70
2024/03/20 10:41:54;;;;;;;47.30;20.00;;;;;;;10.94;66.60;99443.83;82105;1295;3018513;-70
2024/03/20 10:44:21;;;;;;;51.30;20.80;;;;;;;11.02;66.73;99442.64;82118;1294;3011012;-72
2024/03/20 10:46:54;;;;;;;42.30;17.50;;;;;;;11.00;66.68;99441.52;80830;1294;3025607;-67
2024/03/20 10:49:21;;;;;;;42.80;18.00;;;;;;;10.99;66.42;99439.30;82058;1295;3011238;-65
2024/03/20 10:51:50;;;;;;;31.00;15.40;;;;;;;11.15;66.17;99441.98;80939;1294;3056139;-63
2024/03/20 10:54:17;;;;;;;36.40;14.70;;;;;;;11.19;65.53;99441.52;82242;1294;3013003;-74
2024/03/20 10:56:52;;;;;;;35.60;15.70;;;;;;;11.28;65.51;99440.64;82099;1295;3011416;-68
2024/03/20 10:59:20;;;;;;;27.60;14.80;;;;;;;11.33;65.31;99435.40;80830;1295;3052713;-62
2024/03/20 11:01:57;;;;;;;37.80;15.90;;;;;;;11.51;64.97;99435.85;82120;1294;3012930;-69
2024/03/20 11:04:31;;;;;;;39.60;20.00;;;;;;;11.71;64.93;99434.70;80829;1294;3051910;-69
2024/03/20 11:06:58;;;;;;;45.90;19.50;;;;;;;11.88;64.73;99431.34;82081;1294;3011341;-70
2024/03/20 11:09:26;;;;;;;42.20;19.10;;;;;;;12.00;64.19;99432.46;80877;1294;3048530;-65
2024/03/20 11:11:55;;;;;;;35.20;16.20;;;;;;;12.13;63.76;99429.30;82124;1294;3012429;-70
2024/03/20 11:14:29;;;;;;;34.10;14.60;;;;;;;12.27;63.08;99424.86;82075;1294;3011665;-70